sensor_id;sensor_type;location;lat;lon;timestamp;pressure;altitude;pressure_sealevel;temperature;humidity
50484;BME280;36409;52.168;20.878;2023-11-21T00:01:43;99772.46;;;-0.37;83.96
50484;BME280;36409;52.168;20.878;2023-11-21T00:04:12;99785.36;;;-0.34;84.09
50484;BME280;36409;52.168;20.878;2023-11-21T00:06:44;99789.61;;;-0.35;83.94
50484;BME280;36409;52.168;20.878;2023-11-21T00:09:15;99787.04;;;-0.35;83.83
50484;BME280;36409;52.168;20.878;2023-11-21T00:11:46;99787.87;;;-0.36;84.48
50484;BME280;36409;52.168;20.878;2023-11-21T00:14:15;99787.85;;;-0.37;84.84
50484;BME280;36409;52.168;20.878;2023-11-21T00:16:44;99793.81;;;-0.38;84.57
50484;BME280;36409;52.168;20.878;2023-11-21T00:19:13;99788.68;;;-0.38;84.58
50484;BME280;36409;52.168;20.878;2023-11-21T00:21:44;99789.52;;;-0.39;84.15
50484;BME280;36409;52.168;20.878;2023-11-21T00:24:13;99802.34;;;-0.39;84.01
50484;BME280;36409;52.168;20.878;2023-11-21T00:26:42;99804.00;;;-0.41;83.73
50484;BME280;36409;52.168;20.878;2023-11-21T00:29:12;99809.11;;;-0.43;83.78
50484;BME280;36409;52.168;20.878;2023-11-21T00:31:41;99805.66;;;-0.43;84.93
50484;BME280;36409;52.168;20.878;2023-11-21T00:34:11;99802.26;;;-0.42;84.02
50484;BME280;36409;52.168;20.878;2023-11-21T00:36:40;99810.84;;;-0.42;84.88
50484;BME280;36409;52.168;20.878;2023-11-21T00:39:10;99809.11;;;-0.43;83.92
50484;BME280;36409;52.168;20.878;2023-11-21T00:41:40;99809.93;;;-0.44;83.82
50484;BME280;36409;52.168;20.878;2023-11-21T00:44:11;99816.72;;;-0.46;83.92
50484;BME280;36409;52.168;20.878;2023-11-21T00:46:40;99818.38;;;-0.48;84.37
50484;BME280;36409;52.168;20.878;2023-11-21T00:49:11;99810.69;;;-0.48;84.44
50484;BME280;36409;52.168;20.878;2023-11-21T00:51:40;99812.41;;;-0.49;84.79
50484;BME280;36409;52.168;20.878;2023-11-21T00:54:09;99814.91;;;-0.50;84.32
50484;BME280;36409;52.168;20.878;2023-11-21T00:56:40;99825.15;;;-0.52;83.94
50484;BME280;36409;52.168;20.878;2023-11-21T00:59:09;99825.07;;;-0.55;84.28
50484;BME280;36409;52.168;20.878;2023-11-21T01:01:42;99825.80;;;-0.60;84.40
50484;BME280;36409;52.168;20.878;2023-11-21T01:04:11;99821.48;;;-0.63;83.95
50484;BME280;36409;52.168;20.878;2023-11-21T01:06:40;99822.30;;;-0.64;84.36
50484;BME280;36409;52.168;20.878;2023-11-21T01:09:10;99817.98;;;-0.67;83.75
50484;BME280;36409;52.168;20.878;2023-11-21T01:11:43;99822.20;;;-0.69;84.01
50484;BME280;36409;52.168;20.878;2023-11-21T01:14:12;99827.33;;;-0.69;84.65
50484;BME280;36409;52.168;20.878;2023-11-21T01:16:42;99824.74;;;-0.70;83.78
50484;BME280;36409;52.168;20.878;2023-11-21T01:19:11;99834.89;;;-0.75;83.72
50484;BME280;36409;52.168;20.878;2023-11-21T01:21:41;99837.41;;;-0.76;84.24
50484;BME280;36409;52.168;20.878;2023-11-21T01:24:11;99829.71;;;-0.76;84.06
50484;BME280;36409;52.168;20.878;2023-11-21T01:26:39;99839.14;;;-0.75;84.26
50484;BME280;36409;52.168;20.878;2023-11-21T01:29:09;99839.19;;;-0.74;84.07
50484;BME280;36409;52.168;20.878;2023-11-21T01:31:38;99836.62;;;-0.74;84.29
50484;BME280;36409;52.168;20.878;2023-11-21T01:34:07;99837.48;;;-0.73;84.06
50484;BME280;36409;52.168;20.878;2023-11-21T01:36:36;99841.78;;;-0.72;83.86
50484;BME280;36409;52.168;20.878;2023-11-21T01:39:07;99843.52;;;-0.71;84.13
50484;BME280;36409;52.168;20.878;2023-11-21T01:41:37;99842.63;;;-0.72;84.70
50484;BME280;36409;52.168;20.878;2023-11-21T01:44:06;99840.06;;;-0.72;84.33
50484;BME280;36409;52.168;20.878;2023-11-21T01:46:39;99838.39;;;-0.71;84.89
50484;BME280;36409;52.168;20.878;2023-11-21T01:49:10;99836.57;;;-0.75;84.21
50484;BME280;36409;52.168;20.878;2023-11-21T01:51:42;99843.41;;;-0.76;84.01
50484;BME280;36409;52.168;20.878;2023-11-21T01:54:12;99839.91;;;-0.80;83.87
50484;BME280;36409;52.168;20.878;2023-11-21T01:56:46;99838.10;;;-0.84;83.61
50484;BME280;36409;52.168;20.878;2023-11-21T01:59:21;99838.91;;;-0.86;84.24
50484;BME280;36409;52.168;20.878;2023-11-21T02:01:50;99844.85;;;-0.87;84.21
50484;BME280;36409;52.168;20.878;2023-11-21T02:04:20;99847.34;;;-0.90;84.45
50484;BME280;36409;52.168;20.878;2023-11-21T02:06:50;99848.16;;;-0.91;83.83
50484;BME280;36409;52.168;20.878;2023-11-21T02:09:25;99850.64;;;-0.95;83.92
50484;BME280;36409;52.168;20.878;2023-11-21T02:11:55;99846.31;;;-0.97;83.94
50484;BME280;36409;52.168;20.878;2023-11-21T02:14:26;99849.70;;;-0.98;84.45
50484;BME280;36409;52.168;20.878;2023-11-21T02:16:56;99847.95;;;-1.01;83.96
50484;BME280;36409;52.168;20.878;2023-11-21T02:19:26;99855.63;;;-1.01;84.51
50484;BME280;36409;52.168;20.878;2023-11-21T02:21:58;99859.81;;;-1.04;83.94
50484;BME280;36409;52.168;20.878;2023-11-21T02:24:29;99856.34;;;-1.06;84.60
50484;BME280;36409;52.168;20.878;2023-11-21T02:26:58;99857.97;;;-1.10;83.71
50484;BME280;36409;52.168;20.878;2023-11-21T02:29:28;99863.92;;;-1.11;84.36
50484;BME280;36409;52.168;20.878;2023-11-21T02:31:58;99860.45;;;-1.13;84.19
50484;BME280;36409;52.168;20.878;2023-11-21T02:34:28;99858.77;;;-1.13;84.46
50484;BME280;36409;52.168;20.878;2023-11-21T02:36:57;99864.72;;;-1.14;83.95
50484;BME280;36409;52.168;20.878;2023-11-21T02:39:26;99874.17;;;-1.11;84.14
50484;BME280;36409;52.168;20.878;2023-11-21T02:41:55;99867.30;;;-1.12;84.36
50484;BME280;36409;52.168;20.878;2023-11-21T02:44:24;99872.43;;;-1.12;84.11
50484;BME280;36409;52.168;20.878;2023-11-21T02:46:54;99874.14;;;-1.13;83.95
50484;BME280;36409;52.168;20.878;2023-11-21T02:49:26;99870.67;;;-1.15;84.52
50484;BME280;36409;52.168;20.878;2023-11-21T02:51:56;99872.41;;;-1.14;83.93
50484;BME280;36409;52.168;20.878;2023-11-21T02:54:25;99874.08;;;-1.14;84.15
50484;BME280;36409;52.168;20.878;2023-11-21T02:56:55;99871.58;;;-1.13;84.34
50484;BME280;36409;52.168;20.878;2023-11-21T02:59:25;99868.95;;;-1.14;83.69
50484;BME280;36409;52.168;20.878;2023-11-21T03:01:54;99868.02;;;-1.18;83.82
50484;BME280;36409;52.168;20.878;2023-11-21T03:04:26;99877.41;;;-1.18;83.96
50484;BME280;36409;52.168;20.878;2023-11-21T03:06:55;99868.87;;;-1.17;83.89
50484;BME280;36409;52.168;20.878;2023-11-21T03:09:24;99875.73;;;-1.16;84.65
50484;BME280;36409;52.168;20.878;2023-11-21T03:11:55;99871.48;;;-1.16;84.72
50484;BME280;36409;52.168;20.878;2023-11-21T03:14:24;99871.52;;;-1.14;84.01
50484;BME280;36409;52.168;20.878;2023-11-21T03:16:53;99879.27;;;-1.13;84.33
50484;BME280;36409;52.168;20.878;2023-11-21T03:19:22;99880.94;;;-1.13;83.76
50484;BME280;36409;52.168;20.878;2023-11-21T03:21:51;99884.30;;;-1.16;84.29
50484;BME280;36409;52.168;20.878;2023-11-21T03:24:25;99889.33;;;-1.19;84.50
50484;BME280;36409;52.168;20.878;2023-11-21T03:26:54;99890.98;;;-1.21;84.60
50484;BME280;36409;52.168;20.878;2023-11-21T03:29:23;99892.69;;;-1.21;84.56
50484;BME280;36409;52.168;20.878;2023-11-21T03:31:52;99890.95;;;-1.22;84.44
50484;BME280;36409;52.168;20.878;2023-11-21T03:34:26;99890.13;;;-1.21;84.64
50484;BME280;36409;52.168;20.878;2023-11-21T03:36:56;99890.95;;;-1.22;84.67
50484;BME280;36409;52.168;20.878;2023-11-21T03:39:25;99892.52;;;-1.28;84.12
50484;BME280;36409;52.168;20.878;2023-11-21T03:41:54;99891.66;;;-1.28;84.56
50484;BME280;36409;52.168;20.878;2023-11-21T03:44:23;99897.61;;;-1.29;83.74
50484;BME280;36409;52.168;20.878;2023-11-21T03:46:53;99894.20;;;-1.30;84.21
50484;BME280;36409;52.168;20.878;2023-11-21T03:49:22;99897.58;;;-1.31;84.02
50484;BME280;36409;52.168;20.878;2023-11-21T03:51:55;99904.38;;;-1.31;83.73
50484;BME280;36409;52.168;20.878;2023-11-21T03:54:25;99905.29;;;-1.29;83.82
50484;BME280;36409;52.168;20.878;2023-11-21T03:56:54;99912.13;;;-1.30;84.12
50484;BME280;36409;52.168;20.878;2023-11-21T03:59:24;99917.27;;;-1.28;84.25
50484;BME280;36409;52.168;20.878;2023-11-21T04:01:56;99923.22;;;-1.29;84.38
50484;BME280;36409;52.168;20.878;2023-11-21T04:04:25;99924.87;;;-1.31;84.51
50484;BME280;36409;52.168;20.878;2023-11-21T04:06:54;99927.40;;;-1.33;84.19
50484;BME280;36409;52.168;20.878;2023-11-21T04:09:24;99928.25;;;-1.32;84.32
50484;BME280;36409;52.168;20.878;2023-11-21T04:11:53;99928.22;;;-1.34;84.49
50484;BME280;36409;52.168;20.878;2023-11-21T04:14:23;99925.63;;;-1.35;84.27
50484;BME280;36409;52.168;20.878;2023-11-21T04:16:53;99924.75;;;-1.36;84.19
50484;BME280;36409;52.168;20.878;2023-11-21T04:19:23;99927.30;;;-1.36;84.34
50484;BME280;36409;52.168;20.878;2023-11-21T04:21:52;99927.27;;;-1.37;84.59
50484;BME280;36409;52.168;20.878;2023-11-21T04:24:20;99932.40;;;-1.37;84.68
50484;BME280;36409;52.168;20.878;2023-11-21T04:26:49;99928.92;;;-1.40;83.72
50484;BME280;36409;52.168;20.878;2023-11-21T04:29:18;99934.89;;;-1.39;83.88
50484;BME280;36409;52.168;20.878;2023-11-21T04:31:47;99936.63;;;-1.38;84.18
50484;BME280;36409;52.168;20.878;2023-11-21T04:34:17;99941.84;;;-1.35;84.04
50484;BME280;36409;52.168;20.878;2023-11-21T04:36:46;99944.44;;;-1.33;84.66
50484;BME280;36409;52.168;20.878;2023-11-21T04:39:18;99948.70;;;-1.34;84.12
50484;BME280;36409;52.168;20.878;2023-11-21T04:41:48;99951.23;;;-1.35;84.37
50484;BME280;36409;52.168;20.878;2023-11-21T04:44:17;99952.94;;;-1.34;83.95
50484;BME280;36409;52.168;20.878;2023-11-21T04:46:47;99958.06;;;-1.34;83.84
50484;BME280;36409;52.168;20.878;2023-11-21T04:49:16;99958.06;;;-1.34;84.33
50484;BME280;36409;52.168;20.878;2023-11-21T04:51:45;99955.56;;;-1.33;84.40
50484;BME280;36409;52.168;20.878;2023-11-21T04:54:14;99951.30;;;-1.32;84.43
50484;BME280;36409;52.168;20.878;2023-11-21T04:56:46;99953.83;;;-1.34;84.32
50484;BME280;36409;52.168;20.878;2023-11-21T04:59:18;99959.77;;;-1.35;84.53
50484;BME280;36409;52.168;20.878;2023-11-21T05:01:50;99948.61;;;-1.37;84.02
50484;BME280;36409;52.168;20.878;2023-11-21T05:04:20;99947.67;;;-1.41;84.55
50484;BME280;36409;52.168;20.878;2023-11-21T05:06:49;99955.23;;;-1.45;83.92
50484;BME280;36409;52.168;20.878;2023-11-21T05:09:18;99958.52;;;-1.49;83.88
50484;BME280;36409;52.168;20.878;2023-11-21T05:11:50;99963.60;;;-1.51;83.98
50484;BME280;36409;52.168;20.878;2023-11-21T05:14:21;99967.80;;;-1.53;84.38
50484;BME280;36409;52.168;20.878;2023-11-21T05:16:50;99974.63;;;-1.53;84.01
50484;BME280;36409;52.168;20.878;2023-11-21T05:19:20;99989.11;;;-1.54;83.92
50484;BME280;36409;52.168;20.878;2023-11-21T05:21:49;99985.59;;;-1.58;84.25
50484;BME280;36409;52.168;20.878;2023-11-21T05:24:18;99981.27;;;-1.60;83.82
50484;BME280;36409;52.168;20.878;2023-11-21T05:26:47;99988.03;;;-1.62;83.98
50484;BME280;36409;52.168;20.878;2023-11-21T05:29:16;99991.44;;;-1.62;84.09
50484;BME280;36409;52.168;20.878;2023-11-21T05:31:46;99995.73;;;-1.61;83.71
50484;BME280;36409;52.168;20.878;2023-11-21T05:34:19;100000.86;;;-1.61;84.06
50484;BME280;36409;52.168;20.878;2023-11-21T05:36:49;100005.12;;;-1.61;83.65
50484;BME280;36409;52.168;20.878;2023-11-21T05:39:18;100008.54;;;-1.61;84.24
50484;BME280;36409;52.168;20.878;2023-11-21T05:41:47;100005.12;;;-1.61;84.35
50484;BME280;36409;52.168;20.878;2023-11-21T05:44:18;100016.22;;;-1.61;84.05
50484;BME280;36409;52.168;20.878;2023-11-21T05:46:50;100017.92;;;-1.61;83.97
50484;BME280;36409;52.168;20.878;2023-11-21T05:49:20;100016.15;;;-1.64;84.26
50484;BME280;36409;52.168;20.878;2023-11-21T05:51:50;100014.45;;;-1.63;84.16
50484;BME280;36409;52.168;20.878;2023-11-21T05:54:22;100014.45;;;-1.63;84.31
50484;BME280;36409;52.168;20.878;2023-11-21T05:56:52;100013.52;;;-1.65;84.40
50484;BME280;36409;52.168;20.878;2023-11-21T05:59:21;100013.42;;;-1.68;84.51
50484;BME280;36409;52.168;20.878;2023-11-21T06:01:51;100015.16;;;-1.67;84.09
50484;BME280;36409;52.168;20.878;2023-11-21T06:04:21;100011.75;;;-1.68;84.11
50484;BME280;36409;52.168;20.878;2023-11-21T06:06:52;100026.19;;;-1.70;84.18
50484;BME280;36409;52.168;20.878;2023-11-21T06:09:22;100026.97;;;-1.73;83.86
50484;BME280;36409;52.168;20.878;2023-11-21T06:11:51;100033.73;;;-1.75;83.62
50484;BME280;36409;52.168;20.878;2023-11-21T06:14:20;100039.66;;;-1.76;83.55
50484;BME280;36409;52.168;20.878;2023-11-21T06:16:51;100035.44;;;-1.75;84.12
50484;BME280;36409;52.168;20.878;2023-11-21T06:19:21;100051.64;;;-1.75;84.54
50484;BME280;36409;52.168;20.878;2023-11-21T06:21:50;100053.34;;;-1.75;83.90
50484;BME280;36409;52.168;20.878;2023-11-21T06:24:19;100057.58;;;-1.76;84.19
50484;BME280;36409;52.168;20.878;2023-11-21T06:26:49;100058.47;;;-1.75;83.87
50484;BME280;36409;52.168;20.878;2023-11-21T06:29:18;100051.64;;;-1.75;84.01
50484;BME280;36409;52.168;20.878;2023-11-21T06:31:47;100061.88;;;-1.75;83.54
50484;BME280;36409;52.168;20.878;2023-11-21T06:34:16;100052.56;;;-1.73;84.03
50484;BME280;36409;52.168;20.878;2023-11-21T06:36:45;100057.72;;;-1.71;84.54
50484;BME280;36409;52.168;20.878;2023-11-21T06:39:15;100059.46;;;-1.70;83.64
50484;BME280;36409;52.168;20.878;2023-11-21T06:41:45;100059.50;;;-1.68;83.67
50484;BME280;36409;52.168;20.878;2023-11-21T06:44:14;100062.12;;;-1.67;84.04
50484;BME280;36409;52.168;20.878;2023-11-21T06:46:43;100063.94;;;-1.63;84.16
50484;BME280;36409;52.168;20.878;2023-11-21T06:49:13;100066.56;;;-1.61;84.55
50484;BME280;36409;52.168;20.878;2023-11-21T06:51:42;100071.78;;;-1.58;84.21
50484;BME280;36409;52.168;20.878;2023-11-21T06:54:11;100078.58;;;-1.59;83.99
50484;BME280;36409;52.168;20.878;2023-11-21T06:56:42;100087.17;;;-1.57;83.76
50484;BME280;36409;52.168;20.878;2023-11-21T06:59:10;100078.61;;;-1.57;84.38
50484;BME280;36409;52.168;20.878;2023-11-21T07:01:40;100082.84;;;-1.59;83.94
50484;BME280;36409;52.168;20.878;2023-11-21T07:04:10;100085.41;;;-1.59;84.08
50484;BME280;36409;52.168;20.878;2023-11-21T07:06:39;100096.46;;;-1.60;83.62
50484;BME280;36409;52.168;20.878;2023-11-21T07:09:09;100108.45;;;-1.59;83.91
50484;BME280;36409;52.168;20.878;2023-11-21T07:11:39;100105.00;;;-1.60;84.33
50484;BME280;36409;52.168;20.878;2023-11-21T07:14:12;100111.82;;;-1.60;83.98
50484;BME280;36409;52.168;20.878;2023-11-21T07:16:41;100110.19;;;-1.58;84.40
50484;BME280;36409;52.168;20.878;2023-11-21T07:19:10;100106.77;;;-1.57;84.08
50484;BME280;36409;52.168;20.878;2023-11-21T07:21:40;100104.21;;;-1.57;84.15
50484;BME280;36409;52.168;20.878;2023-11-21T07:24:09;100106.84;;;-1.56;84.08
50484;BME280;36409;52.168;20.878;2023-11-21T07:26:40;100105.92;;;-1.58;83.54
50484;BME280;36409;52.168;20.878;2023-11-21T07:29:10;100105.06;;;-1.58;83.63
50484;BME280;36409;52.168;20.878;2023-11-21T07:31:42;100105.88;;;-1.59;84.12
50484;BME280;36409;52.168;20.878;2023-11-21T07:34:11;100121.14;;;-1.62;84.16
50484;BME280;36409;52.168;20.878;2023-11-21T07:36:40;100119.40;;;-1.63;83.74
50484;BME280;36409;52.168;20.878;2023-11-21T07:39:09;100120.25;;;-1.63;83.50
50484;BME280;36409;52.168;20.878;2023-11-21T07:41:38;100121.95;;;-1.63;84.41
50484;BME280;36409;52.168;20.878;2023-11-21T07:44:13;100120.18;;;-1.66;83.65
50484;BME280;36409;52.168;20.878;2023-11-21T07:46:43;100121.84;;;-1.66;83.57
50484;BME280;36409;52.168;20.878;2023-11-21T07:49:14;100123.55;;;-1.67;83.93
50484;BME280;36409;52.168;20.878;2023-11-21T07:51:44;100123.55;;;-1.67;84.37
50484;BME280;36409;52.168;20.878;2023-11-21T07:54:13;100121.00;;;-1.67;83.32
50484;BME280;36409;52.168;20.878;2023-11-21T07:56:42;100122.73;;;-1.66;83.96
50484;BME280;36409;52.168;20.878;2023-11-21T07:59:12;100126.16;;;-1.65;83.81
50484;BME280;36409;52.168;20.878;2023-11-21T08:01:42;100127.89;;;-1.64;83.66
50484;BME280;36409;52.168;20.878;2023-11-21T08:04:14;100121.84;;;-1.66;83.50
50484;BME280;36409;52.168;20.878;2023-11-21T08:06:43;100125.33;;;-1.64;83.81
50484;BME280;36409;52.168;20.878;2023-11-21T08:09:12;100127.93;;;-1.63;84.36
50484;BME280;36409;52.168;20.878;2023-11-21T08:11:43;100123.73;;;-1.61;84.06
50484;BME280;36409;52.168;20.878;2023-11-21T08:14:13;100134.05;;;-1.59;84.06
50484;BME280;36409;52.168;20.878;2023-11-21T08:16:43;100128.14;;;-1.57;84.49
50484;BME280;36409;52.168;20.878;2023-11-21T08:19:21;100135.03;;;-1.54;84.04
50484;BME280;36409;52.168;20.878;2023-11-21T08:21:52;100134.25;;;-1.51;84.37
50484;BME280;36409;52.168;20.878;2023-11-21T08:24:25;100141.94;;;-1.51;83.99
50484;BME280;36409;52.168;20.878;2023-11-21T08:26:55;100140.16;;;-1.54;83.40
50484;BME280;36409;52.168;20.878;2023-11-21T08:29:25;100154.70;;;-1.53;83.67
50484;BME280;36409;52.168;20.878;2023-11-21T08:31:55;100153.84;;;-1.53;84.31
50484;BME280;36409;52.168;20.878;2023-11-21T08:34:24;100153.84;;;-1.53;83.71
50484;BME280;36409;52.168;20.878;2023-11-21T08:36:54;100160.64;;;-1.54;84.26
50484;BME280;36409;52.168;20.878;2023-11-21T08:39:24;100165.72;;;-1.56;84.00
50484;BME280;36409;52.168;20.878;2023-11-21T08:41:53;100170.88;;;-1.54;83.97
50484;BME280;36409;52.168;20.878;2023-11-21T08:44:24;100165.86;;;-1.51;84.10
50484;BME280;36409;52.168;20.878;2023-11-21T08:46:54;100164.98;;;-1.51;84.21
50484;BME280;36409;52.168;20.878;2023-11-21T08:49:26;100168.39;;;-1.52;83.78
50484;BME280;36409;52.168;20.878;2023-11-21T08:51:56;100164.94;;;-1.53;84.00
50484;BME280;36409;52.168;20.878;2023-11-21T08:54:27;100166.65;;;-1.53;84.19
50484;BME280;36409;52.168;20.878;2023-11-21T08:56:56;100173.55;;;-1.51;83.86
50484;BME280;36409;52.168;20.878;2023-11-21T08:59:26;100176.08;;;-1.52;84.28
50484;BME280;36409;52.168;20.878;2023-11-21T09:01:55;100180.27;;;-1.54;84.06
50484;BME280;36409;52.168;20.878;2023-11-21T09:04:24;100180.30;;;-1.53;84.17
50484;BME280;36409;52.168;20.878;2023-11-21T09:06:54;100184.50;;;-1.55;83.78
50484;BME280;36409;52.168;20.878;2023-11-21T09:09:23;100190.44;;;-1.56;84.22
50484;BME280;36409;52.168;20.878;2023-11-21T09:12:00;100197.27;;;-1.57;83.78
50484;BME280;36409;52.168;20.878;2023-11-21T09:14:35;100197.23;;;-1.58;83.55
50484;BME280;36409;52.168;20.878;2023-11-21T09:17:04;100192.14;;;-1.57;83.78
50484;BME280;36409;52.168;20.878;2023-11-21T09:19:39;100188.80;;;-1.54;84.29
50484;BME280;36409;52.168;20.878;2023-11-21T09:22:09;100193.99;;;-1.52;84.09
50484;BME280;36409;52.168;20.878;2023-11-21T09:24:38;100194.84;;;-1.52;83.97
50484;BME280;36409;52.168;20.878;2023-11-21T09:27:08;100193.25;;;-1.48;84.03
50484;BME280;36409;52.168;20.878;2023-11-21T09:29:39;100195.92;;;-1.45;83.81
50484;BME280;36409;52.168;20.878;2023-11-21T09:32:09;100201.18;;;-1.41;83.84
50484;BME280;36409;52.168;20.878;2023-11-21T09:34:40;100198.77;;;-1.36;83.44
50484;BME280;36409;52.168;20.878;2023-11-21T09:37:10;100199.80;;;-1.31;84.30
50484;BME280;36409;52.168;20.878;2023-11-21T09:39:39;100199.05;;;-1.27;83.86
50484;BME280;36409;52.168;20.878;2023-11-21T09:42:12;100194.06;;;-1.22;84.19
50484;BME280;36409;52.168;20.878;2023-11-21T09:44:48;100185.83;;;-1.12;84.28
50484;BME280;36409;52.168;20.878;2023-11-21T09:47:28;100188.77;;;-0.99;84.23
50484;BME280;36409;52.168;20.878;2023-11-21T09:50:00;100189.89;;;-0.91;83.76
50484;BME280;36409;52.168;20.878;2023-11-21T09:52:32;100184.11;;;-0.84;83.72
50484;BME280;36409;52.168;20.878;2023-11-21T09:55:02;100192.78;;;-0.79;84.15
50484;BME280;36409;52.168;20.878;2023-11-21T09:57:34;100196.39;;;-0.72;83.57
50484;BME280;36409;52.168;20.878;2023-11-21T10:00:07;100197.38;;;-0.68;83.33
50484;BME280;36409;52.168;20.878;2023-11-21T10:02:40;100204.38;;;-0.63;83.57
50484;BME280;36409;52.168;20.878;2023-11-21T10:05:12;100207.01;;;-0.59;83.79
50484;BME280;36409;52.168;20.878;2023-11-21T10:07:44;100211.44;;;-0.54;83.16
50484;BME280;36409;52.168;20.878;2023-11-21T10:10:14;100206.31;;;-0.54;83.61
50484;BME280;36409;52.168;20.878;2023-11-21T10:12:49;100207.95;;;-0.56;82.88
50484;BME280;36409;52.168;20.878;2023-11-21T10:15:24;100213.87;;;-0.58;82.95
50484;BME280;36409;52.168;20.878;2023-11-21T10:17:55;100213.94;;;-0.57;83.08
50484;BME280;36409;52.168;20.878;2023-11-21T10:20:25;100215.84;;;-0.50;83.78
50484;BME280;36409;52.168;20.878;2023-11-21T10:22:54;100215.18;;;-0.42;83.15
50484;BME280;36409;52.168;20.878;2023-11-21T10:25:25;100211.09;;;-0.36;83.44
50484;BME280;36409;52.168;20.878;2023-11-21T10:27:58;100213.08;;;-0.25;84.18
50484;BME280;36409;52.168;20.878;2023-11-21T10:30:32;100214.09;;;-0.20;83.46
50484;BME280;36409;52.168;20.878;2023-11-21T10:33:05;100206.64;;;-0.11;83.37
50484;BME280;36409;52.168;20.878;2023-11-21T10:35:43;100212.71;;;-0.07;83.18
50484;BME280;36409;52.168;20.878;2023-11-21T10:38:16;100212.62;;;-0.10;83.16
50484;BME280;36409;52.168;20.878;2023-11-21T10:40:46;100219.34;;;-0.16;83.66
50484;BME280;36409;52.168;20.878;2023-11-21T10:43:16;100222.61;;;-0.21;83.22
50484;BME280;36409;52.168;20.878;2023-11-21T10:45:47;100224.96;;;-0.29;82.83
50484;BME280;36409;52.168;20.878;2023-11-21T10:48:16;100225.69;;;-0.33;82.94
50484;BME280;36409;52.168;20.878;2023-11-21T10:50:46;100223.00;;;-0.38;83.80
50484;BME280;36409;52.168;20.878;2023-11-21T10:53:16;100227.97;;;-0.44;82.95
50484;BME280;36409;52.168;20.878;2023-11-21T10:55:45;100226.20;;;-0.47;83.51
50484;BME280;36409;52.168;20.878;2023-11-21T10:58:15;100234.66;;;-0.49;83.13
50484;BME280;36409;52.168;20.878;2023-11-21T11:00:45;100224.13;;;-0.58;83.28
50484;BME280;36409;52.168;20.878;2023-11-21T11:03:14;100217.23;;;-0.61;83.34
50484;BME280;36409;52.168;20.878;2023-11-21T11:05:46;100230.87;;;-0.62;83.15
50484;BME280;36409;52.168;20.878;2023-11-21T11:08:20;100227.39;;;-0.64;83.26
50484;BME280;36409;52.168;20.878;2023-11-21T11:10:55;100224.73;;;-0.67;83.29
50484;BME280;36409;52.168;20.878;2023-11-21T11:13:25;100224.70;;;-0.69;83.66
50484;BME280;36409;52.168;20.878;2023-11-21T11:15:58;100231.44;;;-0.72;83.00
50484;BME280;36409;52.168;20.878;2023-11-21T11:18:30;100231.30;;;-0.77;83.30
50484;BME280;36409;52.168;20.878;2023-11-21T11:21:07;100227.81;;;-0.79;82.83
50484;BME280;36409;52.168;20.878;2023-11-21T11:23:49;100236.46;;;-0.75;83.04
50484;BME280;36409;52.168;20.878;2023-11-21T11:26:39;100233.90;;;-0.75;82.86
50484;BME280;36409;52.168;20.878;2023-11-21T11:29:21;100242.41;;;-0.76;82.90
50484;BME280;36409;52.168;20.878;2023-11-21T11:32:03;100239.81;;;-0.78;83.18
50484;BME280;36409;52.168;20.878;2023-11-21T11:34:44;100239.81;;;-0.78;82.97
50484;BME280;36409;52.168;20.878;2023-11-21T11:37:16;100239.78;;;-0.80;83.35
50484;BME280;36409;52.168;20.878;2023-11-21T11:39:45;100237.11;;;-0.83;83.04
50484;BME280;36409;52.168;20.878;2023-11-21T11:42:17;100245.52;;;-0.87;83.22
50484;BME280;36409;52.168;20.878;2023-11-21T11:44:50;100247.16;;;-0.89;82.88
50484;BME280;36409;52.168;20.878;2023-11-21T11:47:26;100243.61;;;-0.94;83.49
50484;BME280;36409;52.168;20.878;2023-11-21T11:50:09;100246.89;;;-0.98;83.55
50484;BME280;36409;52.168;20.878;2023-11-21T11:52:42;100245.97;;;-1.00;82.87
50484;BME280;36409;52.168;20.878;2023-11-21T11:55:13;100246.75;;;-1.03;82.72
50484;BME280;36409;52.168;20.878;2023-11-21T11:57:44;100244.05;;;-1.07;83.52
50484;BME280;36409;52.168;20.878;2023-11-21T12:00:17;100248.25;;;-1.10;82.92
50484;BME280;36409;52.168;20.878;2023-11-21T12:02:50;100248.21;;;-1.11;83.39
50484;BME280;36409;52.168;20.878;2023-11-21T12:05:21;100253.23;;;-1.14;83.27
50484;BME280;36409;52.168;20.878;2023-11-21T12:07:52;100258.17;;;-1.20;83.06
50484;BME280;36409;52.168;20.878;2023-11-21T12:10:25;100265.72;;;-1.25;83.12
50484;BME280;36409;52.168;20.878;2023-11-21T12:13:06;100263.08;;;-1.27;83.45
50484;BME280;36409;52.168;20.878;2023-11-21T12:15:40;100262.38;;;-1.22;82.92
50484;BME280;36409;52.168;20.878;2023-11-21T12:18:11;100272.62;;;-1.22;83.04
50484;BME280;36409;52.168;20.878;2023-11-21T12:20:41;100273.40;;;-1.25;83.57
50484;BME280;36409;52.168;20.878;2023-11-21T12:23:11;100279.41;;;-1.23;83.68
50484;BME280;36409;52.168;20.878;2023-11-21T12:25:43;100270.84;;;-1.25;83.51
50484;BME280;36409;52.168;20.878;2023-11-21T12:28:13;100270.05;;;-1.22;83.18
50484;BME280;36409;52.168;20.878;2023-11-21T12:30:43;100272.66;;;-1.21;83.33
50484;BME280;36409;52.168;20.878;2023-11-21T12:33:12;100276.03;;;-1.22;83.54
50484;BME280;36409;52.168;20.878;2023-11-21T12:35:46;100275.14;;;-1.24;82.95
50484;BME280;36409;52.168;20.878;2023-11-21T12:38:15;100288.09;;;-1.19;83.02
50484;BME280;36409;52.168;20.878;2023-11-21T12:40:47;100288.13;;;-1.18;82.69
50484;BME280;36409;52.168;20.878;2023-11-21T12:43:17;100277.84;;;-1.19;82.78
50484;BME280;36409;52.168;20.878;2023-11-21T12:45:47;100278.70;;;-1.19;83.49
50484;BME280;36409;52.168;20.878;2023-11-21T12:48:16;100283.79;;;-1.20;83.59
50484;BME280;36409;52.168;20.878;2023-11-21T12:53:45;100293.97;;;-1.22;83.23
50484;BME280;36409;52.168;20.878;2023-11-21T12:56:15;100290.44;;;-1.26;82.85
50484;BME280;36409;52.168;20.878;2023-11-21T12:58:46;100289.52;;;-1.28;82.93
50484;BME280;36409;52.168;20.878;2023-11-21T13:01:15;100286.88;;;-1.31;82.89
50484;BME280;36409;52.168;20.878;2023-11-21T13:03:51;100295.30;;;-1.33;83.10
50484;BME280;36409;52.168;20.878;2023-11-21T13:06:20;100296.86;;;-1.38;82.67